createdAt,value
2023-11-23T00:00:45.232Z,1.67
2023-11-23T00:01:45.313Z,1.74
2023-11-23T00:02:45.338Z,1.75
2023-11-23T00:03:45.256Z,1.75
2023-11-23T00:04:45.208Z,1.74
2023-11-23T00:05:45.225Z,1.78
2023-11-23T00:06:45.315Z,1.78
2023-11-23T00:07:45.159Z,1.80
2023-11-23T00:08:45.337Z,1.81
2023-11-23T00:09:45.101Z,1.82
2023-11-23T00:10:45.152Z,1.80
2023-11-23T00:11:45.124Z,1.81
2023-11-23T00:12:45.344Z,1.89
2023-11-23T00:13:45.067Z,1.87
2023-11-23T00:14:45.116Z,1.85
2023-11-23T00:15:45.102Z,1.82
2023-11-23T00:16:45.107Z,1.82
2023-11-23T00:17:45.148Z,1.84
2023-11-23T00:18:45.278Z,1.89
2023-11-23T00:19:45.157Z,1.85
2023-11-23T00:20:45.059Z,1.89
2023-11-23T00:21:44.996Z,1.87
2023-11-23T00:22:45.560Z,1.87
2023-11-23T00:23:45.646Z,1.89
2023-11-23T00:24:45.026Z,1.91
2023-11-23T00:25:44.968Z,1.89
2023-11-23T00:26:44.965Z,1.87
2023-11-23T00:27:44.951Z,1.95
2023-11-23T00:28:44.962Z,1.93
2023-11-23T00:29:45.011Z,1.99
2023-11-23T00:30:44.918Z,2.00
2023-11-23T00:31:44.988Z,2.01
2023-11-23T00:32:44.997Z,1.99
2023-11-23T00:33:45.055Z,1.95
2023-11-23T00:34:44.979Z,1.99
2023-11-23T00:35:44.882Z,2.01
2023-11-23T00:36:44.878Z,2.00
2023-11-23T00:37:44.961Z,2.00
2023-11-23T00:38:44.903Z,2.03
2023-11-23T00:39:44.905Z,2.01
2023-11-23T00:40:44.878Z,2.03
2023-11-23T00:41:44.870Z,2.03
2023-11-23T00:42:44.889Z,2.04
2023-11-23T00:43:45.581Z,2.03
2023-11-23T00:44:44.805Z,2.07
2023-11-23T00:45:44.792Z,2.07
2023-11-23T00:46:44.858Z,2.10
2023-11-23T00:47:44.844Z,2.07
2023-11-23T00:48:44.850Z,2.10
2023-11-23T00:49:44.763Z,2.07
2023-11-23T00:50:44.806Z,2.06
2023-11-23T00:51:44.781Z,2.10
2023-11-23T00:52:44.761Z,2.10
2023-11-23T00:53:44.828Z,2.12
2023-11-23T00:54:44.722Z,2.11
2023-11-23T00:55:44.688Z,2.12
2023-11-23T00:56:44.695Z,2.18
2023-11-23T00:57:44.659Z,2.14
2023-11-23T00:58:44.756Z,2.15
2023-11-23T00:59:44.702Z,2.18
2023-11-23T01:00:45.605Z,2.15
2023-11-23T01:01:44.809Z,2.17
2023-11-23T01:02:44.894Z,2.22
2023-11-23T01:03:44.795Z,2.21
2023-11-23T01:04:44.625Z,2.25
2023-11-23T01:05:44.648Z,2.25
2023-11-23T01:06:44.609Z,2.24
2023-11-23T01:07:44.617Z,2.28
2023-11-23T01:08:44.631Z,2.28
2023-11-23T01:09:44.650Z,2.33
2023-11-23T01:10:44.643Z,2.32
2023-11-23T01:11:44.588Z,2.37
2023-11-23T01:12:44.587Z,2.36
2023-11-23T01:13:44.600Z,2.40
2023-11-23T01:14:44.616Z,2.43
2023-11-23T01:15:44.505Z,2.40
2023-11-23T01:16:44.530Z,2.45
2023-11-23T01:17:44.588Z,2.45
2023-11-23T01:18:44.584Z,2.47
2023-11-23T01:19:44.525Z,2.48
2023-11-23T01:20:44.561Z,2.50
2023-11-23T01:21:44.599Z,2.48
2023-11-23T01:22:44.510Z,2.53
2023-11-23T01:23:44.585Z,2.55
2023-11-23T01:24:44.434Z,2.57
2023-11-23T01:25:44.406Z,2.57
2023-11-23T01:26:44.509Z,2.61
2023-11-23T01:27:44.419Z,2.65
2023-11-23T01:28:44.428Z,2.60
2023-11-23T01:29:44.442Z,2.60
2023-11-23T01:30:44.367Z,2.61
2023-11-23T01:31:44.347Z,2.58
2023-11-23T01:32:44.467Z,2.58
2023-11-23T01:33:44.569Z,2.66
2023-11-23T01:34:44.393Z,2.68
2023-11-23T01:35:44.362Z,2.71
2023-11-23T01:36:44.343Z,2.71
2023-11-23T01:37:44.299Z,2.75
2023-11-23T01:38:44.396Z,2.72
2023-11-23T01:39:44.307Z,2.69
2023-11-23T01:40:44.368Z,2.75
2023-11-23T01:41:44.329Z,2.73
2023-11-23T01:42:44.550Z,2.81
2023-11-23T01:43:44.362Z,2.79
2023-11-23T01:44:44.347Z,2.79
2023-11-23T01:45:44.313Z,2.81
2023-11-23T01:46:44.246Z,2.81
2023-11-23T01:47:44.288Z,2.81
2023-11-23T01:48:44.304Z,2.79
2023-11-23T01:49:44.275Z,2.81
2023-11-23T01:50:44.269Z,2.79
2023-11-23T01:51:44.181Z,2.86
2023-11-23T01:52:44.257Z,2.81
2023-11-23T01:53:44.215Z,2.79
2023-11-23T01:54:44.211Z,2.79
2023-11-23T01:55:44.134Z,2.81
2023-11-23T01:56:44.213Z,2.81
2023-11-23T01:57:44.153Z,2.82
2023-11-23T01:58:44.117Z,2.84
2023-11-23T01:59:44.129Z,2.87
2023-11-23T02:00:44.207Z,2.86
2023-11-23T02:01:45.165Z,2.90
2023-11-23T02:02:44.175Z,2.93
2023-11-23T02:03:44.185Z,2.90
2023-11-23T02:04:44.138Z,2.93
2023-11-23T02:05:44.108Z,2.93
2023-11-23T02:06:44.083Z,2.89
2023-11-23T02:07:44.029Z,2.89
2023-11-23T02:08:44.065Z,2.90
2023-11-23T02:09:44.090Z,2.91
2023-11-23T02:10:44.101Z,2.91
2023-11-23T02:11:44.060Z,2.94
2023-11-23T02:12:44.021Z,2.97
2023-11-23T02:13:44.013Z,2.96
2023-11-23T02:14:44.099Z,2.99
2023-11-23T02:15:45.146Z,3.02
2023-11-23T02:16:44.016Z,3.05
2023-11-23T02:17:44.053Z,3.00
2023-11-23T02:18:44.126Z,3.05
2023-11-23T02:19:44.601Z,3.04
2023-11-23T02:20:43.998Z,3.07
2023-11-23T02:21:44.623Z,3.05
2023-11-23T02:22:43.932Z,3.09
2023-11-23T02:23:43.921Z,3.08
2023-11-23T02:24:43.966Z,3.08
2023-11-23T02:25:43.923Z,3.12
2023-11-23T02:26:43.930Z,3.11
2023-11-23T02:27:43.891Z,3.12
2023-11-23T02:28:43.858Z,3.12
2023-11-23T02:29:43.881Z,3.14
2023-11-23T02:30:43.838Z,3.17
2023-11-23T02:31:43.884Z,3.17
2023-11-23T02:32:43.962Z,3.18
2023-11-23T02:33:43.921Z,3.23
2023-11-23T02:34:43.838Z,3.25
2023-11-23T02:35:43.872Z,3.26
2023-11-23T02:36:43.793Z,3.29
2023-11-23T02:37:43.856Z,3.32
2023-11-23T02:38:43.832Z,3.32
2023-11-23T02:39:44.581Z,3.32
2023-11-23T02:40:43.761Z,3.33
2023-11-23T02:41:43.728Z,3.32
2023-11-23T02:42:46.062Z,3.33
2023-11-23T02:43:43.704Z,3.35
2023-11-23T02:44:43.784Z,3.36
2023-11-23T02:45:43.719Z,3.37
2023-11-23T02:46:43.735Z,3.37
2023-11-23T02:47:43.804Z,3.41
2023-11-23T02:48:43.741Z,3.44
2023-11-23T02:49:43.676Z,3.45
2023-11-23T02:50:43.761Z,3.44
2023-11-23T02:51:43.645Z,3.48
2023-11-23T02:52:43.656Z,3.41
2023-11-23T02:53:43.656Z,3.45
2023-11-23T02:54:43.642Z,3.44
2023-11-23T02:55:43.613Z,3.44
2023-11-23T02:56:43.656Z,3.44
2023-11-23T02:57:43.651Z,3.51
2023-11-23T02:58:43.590Z,3.46
2023-11-23T02:59:43.622Z,3.49
2023-11-23T03:00:43.599Z,3.51
2023-11-23T03:01:43.612Z,3.52
2023-11-23T03:02:43.664Z,3.51
2023-11-23T03:03:43.651Z,3.51
2023-11-23T03:04:43.598Z,3.51
2023-11-23T03:05:43.549Z,3.51
2023-11-23T03:06:43.525Z,3.52
2023-11-23T03:07:43.505Z,3.52
2023-11-23T03:08:43.534Z,3.59
2023-11-23T03:09:43.579Z,3.56
2023-11-23T03:10:43.498Z,3.59
2023-11-23T03:11:43.510Z,3.64
2023-11-23T03:12:43.519Z,3.64
2023-11-23T03:13:43.465Z,3.63
2023-11-23T03:14:43.533Z,3.66
2023-11-23T03:15:43.462Z,3.67
2023-11-23T03:16:43.447Z,3.67
2023-11-23T03:17:43.559Z,3.70
2023-11-23T03:18:43.524Z,3.70
2023-11-23T03:19:43.404Z,3.66
2023-11-23T03:20:43.465Z,3.72
2023-11-23T03:21:43.528Z,3.76
2023-11-23T03:22:43.356Z,3.73
2023-11-23T03:23:43.455Z,3.78
2023-11-23T03:24:43.415Z,3.76
2023-11-23T03:25:43.528Z,3.73
2023-11-23T03:26:43.409Z,3.73
2023-11-23T03:27:43.371Z,3.76
2023-11-23T03:28:43.303Z,3.78
2023-11-23T03:29:43.443Z,3.81
2023-11-23T03:30:43.410Z,3.84
2023-11-23T03:31:43.321Z,3.81
2023-11-23T03:32:43.396Z,3.88
2023-11-23T03:33:43.378Z,3.88
2023-11-23T03:34:43.369Z,3.91
2023-11-23T03:35:43.355Z,3.88
2023-11-23T03:36:43.372Z,3.88
2023-11-23T03:37:43.292Z,3.85
2023-11-23T03:38:43.357Z,3.88
2023-11-23T03:39:43.248Z,3.92
2023-11-23T03:40:43.239Z,3.96
2023-11-23T03:41:43.266Z,3.98
2023-11-23T03:42:43.194Z,3.99
2023-11-23T03:43:43.230Z,3.94
2023-11-23T03:44:43.253Z,4.00
2023-11-23T03:45:43.269Z,4.00
2023-11-23T03:46:43.329Z,4.03
2023-11-23T03:47:43.253Z,4.06
2023-11-23T03:48:43.172Z,4.06
2023-11-23T03:49:43.154Z,4.10
2023-11-23T03:50:43.207Z,4.12
2023-11-23T03:51:43.127Z,4.13
2023-11-23T03:52:43.143Z,4.16
2023-11-23T03:53:43.118Z,4.17
2023-11-23T03:54:43.104Z,4.18
2023-11-23T03:55:43.136Z,4.18
2023-11-23T03:56:43.217Z,4.16
2023-11-23T03:57:43.168Z,4.17
2023-11-23T03:58:43.098Z,4.17
2023-11-23T03:59:43.058Z,4.24
2023-11-23T04:00:43.089Z,4.24
2023-11-23T04:01:43.181Z,4.24
2023-11-23T04:02:43.143Z,4.24
2023-11-23T04:03:43.062Z,4.24
2023-11-23T04:04:43.030Z,4.28
2023-11-23T04:05:43.125Z,4.26
2023-11-23T04:06:42.997Z,4.34
2023-11-23T04:07:42.985Z,4.36
2023-11-23T04:08:42.946Z,4.36
2023-11-23T04:09:42.996Z,4.38
2023-11-23T04:10:42.945Z,4.35
2023-11-23T04:11:42.977Z,4.38
2023-11-23T04:12:42.936Z,4.36
2023-11-23T04:13:42.963Z,4.36
2023-11-23T04:14:42.911Z,4.41
2023-11-23T04:15:42.988Z,4.41
2023-11-23T04:16:42.918Z,4.41
2023-11-23T04:17:42.967Z,4.45
2023-11-23T04:18:43.484Z,4.45
2023-11-23T04:19:42.949Z,4.49
2023-11-23T04:20:42.928Z,4.46
2023-11-23T04:21:42.927Z,4.46
2023-11-23T04:22:42.854Z,4.49
2023-11-23T04:23:42.884Z,4.49
2023-11-23T04:24:42.849Z,4.54
2023-11-23T04:25:42.846Z,4.54
2023-11-23T04:26:42.799Z,4.53
2023-11-23T04:27:42.874Z,4.56
2023-11-23T04:28:42.760Z,4.56
2023-11-23T04:29:42.782Z,4.57
2023-11-23T04:30:42.768Z,4.57
2023-11-23T04:31:42.762Z,4.59
2023-11-23T04:32:42.817Z,4.61
2023-11-23T04:33:42.864Z,4.64
2023-11-23T04:34:42.728Z,4.61
2023-11-23T04:35:42.744Z,4.66
2023-11-23T04:36:42.687Z,4.67
2023-11-23T04:37:42.737Z,4.71
2023-11-23T04:38:42.676Z,4.69
2023-11-23T04:39:42.691Z,4.71
2023-11-23T04:40:42.710Z,4.71
2023-11-23T04:41:42.683Z,4.71
2023-11-23T04:42:42.641Z,4.78
2023-11-23T04:43:42.624Z,4.77
2023-11-23T04:44:42.640Z,4.78
2023-11-23T04:45:42.676Z,4.83
2023-11-23T04:46:42.644Z,4.78
2023-11-23T04:47:42.592Z,4.78
2023-11-23T04:48:42.589Z,4.83
2023-11-23T04:49:42.567Z,4.83
2023-11-23T04:50:42.652Z,4.85
2023-11-23T04:51:42.540Z,4.88
2023-11-23T04:52:42.603Z,4.85
2023-11-23T04:53:42.564Z,4.86
2023-11-23T04:54:42.532Z,4.89
2023-11-23T04:55:42.517Z,4.88
2023-11-23T04:56:42.507Z,4.89
2023-11-23T04:57:42.577Z,4.89
2023-11-23T04:58:42.549Z,4.89
2023-11-23T04:59:42.523Z,4.93
2023-11-23T05:00:43.225Z,4.97
2023-11-23T05:01:42.545Z,4.97
2023-11-23T05:02:42.452Z,5.00
2023-11-23T05:03:42.496Z,5.01
2023-11-23T05:04:42.504Z,5.04
2023-11-23T05:05:42.498Z,5.03
2023-11-23T05:06:42.476Z,5.06
2023-11-23T05:07:42.385Z,5.07
2023-11-23T05:08:42.359Z,5.07
2023-11-23T05:09:42.362Z,5.04
2023-11-23T05:10:42.374Z,5.06
2023-11-23T05:11:42.401Z,5.09
2023-11-23T05:12:42.338Z,5.07
2023-11-23T05:13:42.318Z,5.11
2023-11-23T05:14:42.293Z,5.11
2023-11-23T05:15:42.305Z,5.14
2023-11-23T05:16:42.358Z,5.16
2023-11-23T05:17:42.447Z,5.15
2023-11-23T05:18:44.585Z,5.19
2023-11-23T05:19:43.324Z,5.22
2023-11-23T05:20:42.302Z,5.24
2023-11-23T05:21:42.253Z,5.24
2023-11-23T05:22:42.250Z,5.25
2023-11-23T05:23:42.396Z,5.30
2023-11-23T05:24:42.206Z,5.27
2023-11-23T05:25:42.197Z,5.29
2023-11-23T05:26:42.242Z,5.30
2023-11-23T05:27:42.194Z,5.27
2023-11-23T05:28:42.304Z,5.29
2023-11-23T05:29:42.200Z,5.29
2023-11-23T05:30:42.275Z,5.27
2023-11-23T05:31:42.215Z,5.25
2023-11-23T05:32:42.191Z,5.25
2023-11-23T05:33:42.211Z,5.27
2023-11-23T05:34:42.097Z,5.25
2023-11-23T05:35:42.110Z,5.32
2023-11-23T05:36:42.653Z,5.33
2023-11-23T05:37:42.120Z,5.36
2023-11-23T05:38:42.097Z,5.37
2023-11-23T05:39:44.284Z,5.37
2023-11-23T05:40:42.065Z,5.39
2023-11-23T05:41:42.117Z,5.37
2023-11-23T05:42:50.454Z,5.37
2023-11-23T05:43:42.080Z,5.40
2023-11-23T05:44:41.995Z,5.34
2023-11-23T05:45:42.025Z,5.37
2023-11-23T05:46:42.062Z,5.37
2023-11-23T05:47:42.049Z,5.37
2023-11-23T05:48:42.100Z,5.41
2023-11-23T05:49:42.053Z,5.40
2023-11-23T05:50:41.934Z,5.44
2023-11-23T05:51:42.608Z,5.41
2023-11-23T05:52:41.924Z,5.43
2023-11-23T05:53:41.987Z,5.43
2023-11-23T05:54:41.958Z,5.44
2023-11-23T05:55:41.932Z,5.47
2023-11-23T05:56:42.613Z,5.50
2023-11-23T05:57:41.921Z,5.54
2023-11-23T05:58:42.607Z,5.52
2023-11-23T05:59:41.876Z,5.52
2023-11-23T06:00:41.857Z,5.57
2023-11-23T06:01:41.886Z,5.57
2023-11-23T06:02:41.891Z,5.59
2023-11-23T06:03:42.960Z,5.65
2023-11-23T06:04:42.081Z,5.61
2023-11-23T06:05:41.964Z,5.66
2023-11-23T06:06:41.913Z,5.69
2023-11-23T06:07:41.826Z,5.77
2023-11-23T06:08:42.629Z,5.73
2023-11-23T06:09:41.864Z,5.79
2023-11-23T06:10:41.933Z,5.77
2023-11-23T06:11:41.892Z,5.82
2023-11-23T06:12:41.759Z,5.85
2023-11-23T06:13:43.026Z,5.84
2023-11-23T06:14:41.750Z,5.84
2023-11-23T06:15:41.708Z,5.90
2023-11-23T06:16:41.700Z,5.97
2023-11-23T06:17:42.704Z,5.94
2023-11-23T06:18:41.733Z,6.02
2023-11-23T06:19:41.699Z,5.95
2023-11-23T06:20:41.663Z,6.03
2023-11-23T06:21:41.682Z,6.05
2023-11-23T06:22:41.643Z,6.06
2023-11-23T06:23:41.698Z,6.08
2023-11-23T06:24:41.617Z,6.12
2023-11-23T06:25:41.629Z,6.12
2023-11-23T06:26:41.663Z,6.11
2023-11-23T06:27:41.637Z,6.12
2023-11-23T06:28:41.654Z,6.15
2023-11-23T06:29:41.624Z,6.15
2023-11-23T06:30:41.625Z,6.18
2023-11-23T06:31:41.604Z,6.16
2023-11-23T06:32:41.654Z,6.19
2023-11-23T06:33:42.166Z,6.24
2023-11-23T06:34:41.583Z,6.21
2023-11-23T06:35:41.606Z,6.19
2023-11-23T06:36:45.571Z,6.24
2023-11-23T06:37:41.562Z,6.24
2023-11-23T06:38:41.525Z,6.30
2023-11-23T06:39:41.501Z,6.27
2023-11-23T06:40:41.534Z,6.27
2023-11-23T06:41:41.480Z,6.25
2023-11-23T06:42:41.497Z,6.25
2023-11-23T06:43:41.483Z,6.30
2023-11-23T06:44:41.459Z,6.28
2023-11-23T06:45:41.498Z,6.31
2023-11-23T06:46:41.456Z,6.28
2023-11-23T06:47:41.463Z,6.27
2023-11-23T06:48:41.540Z,6.30
2023-11-23T06:49:41.415Z,6.30
2023-11-23T06:50:41.459Z,6.27
2023-11-23T06:51:41.431Z,6.27
2023-11-23T06:52:41.346Z,6.30
2023-11-23T06:53:41.360Z,6.30
2023-11-23T06:54:41.365Z,6.31
2023-11-23T06:55:41.361Z,6.32
2023-11-23T06:56:41.450Z,6.30
2023-11-23T06:57:42.133Z,6.32
2023-11-23T06:58:41.328Z,6.34
2023-11-23T06:59:41.339Z,6.32
2023-11-23T07:00:41.313Z,6.32
2023-11-23T07:01:41.378Z,6.31
2023-11-23T07:02:41.390Z,6.35
2023-11-23T07:03:41.461Z,6.32
2023-11-23T07:04:41.339Z,6.31
2023-11-23T07:05:41.289Z,6.30
2023-11-23T07:06:41.250Z,6.25
2023-11-23T07:07:41.258Z,6.28
2023-11-23T07:08:41.374Z,6.25
2023-11-23T07:09:41.337Z,6.24
2023-11-23T07:10:41.204Z,6.25
2023-11-23T07:11:41.290Z,6.21
2023-11-23T07:12:41.184Z,6.27
2023-11-23T07:13:41.193Z,6.24
2023-11-23T07:14:41.192Z,6.27
2023-11-23T07:15:41.249Z,6.27
2023-11-23T07:16:42.134Z,6.27
2023-11-23T07:17:42.197Z,6.25
2023-11-23T07:18:41.674Z,6.27
2023-11-23T07:19:41.183Z,6.28
2023-11-23T07:20:41.104Z,6.27
2023-11-23T07:21:41.138Z,6.21
2023-11-23T07:22:41.197Z,6.19
2023-11-23T07:23:41.172Z,6.24
2023-11-23T07:24:41.152Z,6.21
2023-11-23T07:25:41.122Z,6.19
2023-11-23T07:26:41.081Z,6.15
2023-11-23T07:27:41.163Z,6.18
2023-11-23T07:28:41.109Z,6.21
2023-11-23T07:29:41.084Z,6.18
2023-11-23T07:30:41.155Z,6.21
2023-11-23T07:31:42.917Z,6.21
2023-11-23T07:32:41.112Z,6.27
2023-11-23T07:33:41.056Z,6.25
2023-11-23T07:34:41.058Z,6.27
2023-11-23T07:35:41.028Z,6.25
2023-11-23T07:36:40.998Z,6.21
2023-11-23T07:37:41.026Z,6.27
2023-11-23T07:38:40.947Z,6.25
2023-11-23T07:39:40.969Z,6.27
2023-11-23T07:40:40.971Z,6.25
2023-11-23T07:41:40.955Z,6.18
2023-11-23T07:42:40.997Z,6.21
2023-11-23T07:43:41.015Z,6.21
2023-11-23T07:44:40.887Z,6.27
2023-11-23T07:45:40.958Z,6.27
2023-11-23T07:46:40.907Z,6.25
2023-11-23T07:47:40.978Z,6.27
2023-11-23T07:48:40.976Z,6.30
2023-11-23T07:49:40.822Z,6.34
2023-11-23T07:50:40.843Z,6.31
2023-11-23T07:51:40.857Z,6.32
2023-11-23T07:52:40.861Z,6.31
2023-11-23T07:53:40.816Z,6.31
2023-11-23T07:54:40.845Z,6.35
2023-11-23T07:55:40.901Z,6.32
2023-11-23T07:56:40.912Z,6.35
2023-11-23T07:57:41.069Z,6.35
2023-11-23T07:58:40.795Z,6.40
2023-11-23T07:59:40.928Z,6.38
2023-11-23T08:00:41.157Z,6.40
2023-11-23T08:01:40.750Z,6.43
2023-11-23T08:02:40.764Z,6.43
2023-11-23T08:03:40.871Z,6.45
2023-11-23T08:04:40.848Z,6.46
2023-11-23T08:05:40.753Z,6.43
2023-11-23T08:06:40.725Z,6.40
2023-11-23T08:07:40.725Z,6.42
2023-11-23T08:08:40.675Z,6.40
2023-11-23T08:09:40.777Z,6.38
2023-11-23T08:10:40.687Z,6.37
2023-11-23T08:11:42.038Z,6.37
2023-11-23T08:12:40.677Z,6.37
2023-11-23T08:13:40.638Z,6.38
2023-11-23T08:14:40.664Z,6.40
2023-11-23T08:15:40.706Z,6.43
2023-11-23T08:16:41.285Z,6.40
2023-11-23T08:17:46.120Z,6.42
2023-11-23T08:18:47.081Z,6.45
2023-11-23T08:19:40.751Z,6.45
2023-11-23T08:20:40.555Z,6.43
2023-11-23T08:21:40.543Z,6.42
2023-11-23T08:22:40.633Z,6.46
2023-11-23T08:23:40.521Z,6.45
2023-11-23T08:24:40.544Z,6.46
2023-11-23T08:25:40.541Z,6.49
2023-11-23T08:26:40.530Z,6.46
2023-11-23T08:27:40.568Z,6.49
2023-11-23T08:28:40.556Z,6.47
2023-11-23T08:29:40.462Z,6.49
2023-11-23T08:30:40.609Z,6.50
2023-11-23T08:31:40.445Z,6.52
2023-11-23T08:32:40.499Z,6.50
2023-11-23T08:33:40.534Z,6.49
2023-11-23T08:34:42.508Z,6.52
2023-11-23T08:35:40.430Z,6.55
2023-11-23T08:36:40.507Z,6.56
2023-11-23T08:37:40.410Z,6.57
2023-11-23T08:38:40.440Z,6.56
2023-11-23T08:39:40.381Z,6.57
2023-11-23T08:40:40.418Z,6.63
2023-11-23T08:41:40.395Z,6.65
2023-11-23T08:42:40.379Z,6.64
2023-11-23T08:43:40.451Z,6.64
2023-11-23T08:44:40.356Z,6.67
2023-11-23T08:45:40.443Z,6.68
2023-11-23T08:46:40.439Z,6.71
2023-11-23T08:47:40.458Z,6.71
2023-11-23T08:48:40.388Z,6.70
2023-11-23T08:49:40.271Z,6.75
2023-11-23T08:50:40.313Z,6.78
2023-11-23T08:51:40.362Z,6.78
2023-11-23T08:52:40.353Z,6.79
2023-11-23T08:53:40.307Z,6.81
2023-11-23T08:54:40.256Z,6.79
2023-11-23T08:55:40.266Z,6.85
2023-11-23T08:56:40.218Z,6.85
2023-11-23T08:57:40.221Z,6.85
2023-11-23T08:58:40.220Z,6.91
2023-11-23T08:59:40.213Z,6.92
2023-11-23T09:00:40.260Z,6.91
2023-11-23T09:01:44.137Z,6.93
2023-11-23T09:02:40.307Z,6.93
2023-11-23T09:03:40.386Z,6.97
2023-11-23T09:04:44.955Z,6.97
2023-11-23T09:05:40.318Z,6.96
2023-11-23T09:06:40.212Z,7.01
2023-11-23T09:07:40.477Z,7.03
2023-11-23T09:08:40.179Z,7.06
2023-11-23T09:09:40.186Z,7.07
2023-11-23T09:10:40.078Z,7.07
2023-11-23T09:11:40.086Z,7.06
2023-11-23T09:12:40.101Z,7.08
2023-11-23T09:13:40.115Z,7.10
2023-11-23T09:14:47.258Z,7.10
2023-11-23T09:15:40.082Z,7.19
2023-11-23T09:16:40.668Z,7.13
2023-11-23T09:17:40.130Z,7.13
2023-11-23T09:18:40.107Z,7.15
2023-11-23T09:19:42.541Z,7.19
2023-11-23T09:20:40.053Z,7.19
2023-11-23T09:21:40.111Z,7.21
2023-11-23T09:22:40.062Z,7.24
2023-11-23T09:23:40.008Z,7.22
2023-11-23T09:24:40.468Z,7.22
2023-11-23T09:25:39.958Z,7.22
2023-11-23T09:26:39.951Z,7.24
2023-11-23T09:27:39.989Z,7.26
2023-11-23T09:28:39.965Z,7.25
2023-11-23T09:29:39.886Z,7.25
2023-11-23T09:30:40.018Z,7.26
2023-11-23T09:31:39.919Z,7.28
2023-11-23T09:32:40.705Z,7.29
2023-11-23T09:33:39.884Z,7.29
2023-11-23T09:34:40.651Z,7.31
2023-11-23T09:35:40.686Z,7.33
2023-11-23T09:36:39.887Z,7.34
2023-11-23T09:37:39.842Z,7.34
2023-11-23T09:38:39.831Z,7.31
2023-11-23T09:39:39.927Z,7.33
2023-11-23T09:40:39.854Z,7.34
2023-11-23T09:41:39.772Z,7.34
2023-11-23T09:42:40.075Z,7.36
2023-11-23T09:43:39.820Z,7.36
2023-11-23T09:44:39.820Z,7.42
2023-11-23T09:45:39.896Z,7.39
2023-11-23T09:46:39.858Z,7.39
2023-11-23T09:47:39.821Z,7.42
2023-11-23T09:48:39.870Z,7.39
2023-11-23T09:49:39.742Z,7.36
2023-11-23T09:50:41.974Z,7.36
2023-11-23T09:51:39.692Z,7.34
2023-11-23T09:52:39.732Z,7.42
2023-11-23T09:53:39.685Z,7.43
2023-11-23T09:54:39.772Z,7.43
2023-11-23T09:55:40.257Z,7.40
2023-11-23T09:56:40.662Z,7.39
2023-11-23T09:57:39.781Z,7.40
2023-11-23T09:58:39.659Z,7.43
2023-11-23T09:59:39.631Z,7.43
2023-11-23T10:00:39.725Z,7.44
2023-11-23T10:01:39.757Z,7.49
2023-11-23T10:02:39.697Z,7.49
2023-11-23T10:03:39.668Z,7.50
2023-11-23T10:04:39.641Z,7.47
2023-11-23T10:05:39.693Z,7.50
2023-11-23T10:06:39.659Z,7.54
2023-11-23T10:07:39.605Z,7.55
2023-11-23T10:08:39.573Z,7.54
2023-11-23T10:09:39.671Z,7.57
2023-11-23T10:10:39.624Z,7.57
2023-11-23T10:11:39.519Z,7.57
2023-11-23T10:12:39.569Z,7.58
2023-11-23T10:13:39.586Z,7.61
2023-11-23T10:14:39.555Z,7.61
2023-11-23T10:15:39.683Z,7.60
2023-11-23T10:16:39.550Z,7.61
2023-11-23T10:17:39.522Z,7.61
2023-11-23T10:18:39.490Z,7.62
2023-11-23T10:19:39.444Z,7.62
2023-11-23T10:20:40.178Z,7.61
2023-11-23T10:21:39.452Z,7.64
2023-11-23T10:22:39.465Z,7.62
2023-11-23T10:23:39.424Z,7.62
2023-11-23T10:24:39.506Z,7.64
2023-11-23T10:25:39.442Z,7.66
2023-11-23T10:26:40.210Z,7.64
2023-11-23T10:27:39.444Z,7.66
2023-11-23T10:28:39.445Z,7.62
2023-11-23T10:29:39.386Z,7.62
2023-11-23T10:30:39.513Z,7.66
2023-11-23T10:31:39.323Z,7.68
2023-11-23T10:32:39.366Z,7.64
2023-11-23T10:33:39.329Z,7.69
2023-11-23T10:34:39.338Z,7.69
2023-11-23T10:35:39.309Z,7.73
2023-11-23T10:36:39.346Z,7.69
2023-11-23T10:37:39.310Z,7.71
2023-11-23T10:38:44.106Z,7.68
2023-11-23T10:39:39.388Z,7.68
2023-11-23T10:40:39.278Z,7.73
2023-11-23T10:41:39.238Z,7.74
2023-11-23T10:42:39.317Z,7.71
2023-11-23T10:43:39.279Z,7.74
2023-11-23T10:44:39.226Z,7.71
2023-11-23T10:45:39.291Z,7.73
2023-11-23T10:46:39.212Z,7.73
2023-11-23T10:47:39.273Z,7.74
2023-11-23T10:48:39.182Z,7.77
2023-11-23T10:49:39.259Z,7.77
2023-11-23T10:50:39.214Z,7.77
2023-11-23T10:51:39.132Z,7.78
2023-11-23T10:52:39.130Z,7.81
2023-11-23T10:53:39.161Z,7.81
2023-11-23T10:54:39.205Z,7.80
2023-11-23T10:55:39.101Z,7.80
2023-11-23T10:56:39.143Z,7.81
2023-11-23T10:57:39.167Z,7.81
2023-11-23T10:58:39.091Z,7.84
2023-11-23T10:59:39.051Z,7.86
2023-11-23T11:00:39.176Z,7.86
2023-11-23T11:01:39.215Z,7.84
2023-11-23T11:02:39.098Z,7.88
2023-11-23T11:03:39.140Z,7.91
2023-11-23T11:04:39.101Z,7.88
2023-11-23T11:05:39.049Z,7.88
2023-11-23T11:06:39.064Z,7.92
2023-11-23T11:07:39.012Z,7.88
2023-11-23T11:08:38.969Z,7.91
2023-11-23T11:09:39.069Z,7.92
2023-11-23T11:10:39.007Z,7.94
2023-11-23T11:11:38.962Z,7.98
2023-11-23T11:12:39.024Z,7.98
2023-11-23T11:13:39.114Z,7.98
2023-11-23T11:14:38.919Z,7.96
2023-11-23T11:15:38.945Z,7.99
2023-11-23T11:16:39.084Z,7.99
2023-11-23T11:17:38.957Z,7.99
2023-11-23T11:18:38.911Z,8.01
2023-11-23T11:19:38.992Z,7.99
2023-11-23T11:20:38.855Z,7.96
2023-11-23T11:21:38.908Z,7.99
2023-11-23T11:22:38.893Z,7.98
2023-11-23T11:23:38.886Z,7.98
2023-11-23T11:24:38.952Z,7.98
2023-11-23T11:25:38.843Z,8.01
2023-11-23T11:26:38.853Z,8.01
2023-11-23T11:27:38.905Z,8.02
2023-11-23T11:28:38.889Z,8.02
2023-11-23T11:29:38.757Z,8.02
2023-11-23T11:30:39.092Z,8.04
2023-11-23T11:31:38.950Z,8.02
2023-11-23T11:32:38.937Z,8.05
2023-11-23T11:33:39.118Z,8.04
2023-11-23T11:34:38.799Z,8.05
2023-11-23T11:35:38.773Z,8.06
2023-11-23T11:36:38.961Z,8.06
2023-11-23T11:37:38.683Z,8.05
2023-11-23T11:38:38.731Z,8.09
2023-11-23T11:39:38.826Z,8.10
2023-11-23T11:40:38.742Z,8.10
2023-11-23T11:41:38.749Z,8.12
2023-11-23T11:42:38.754Z,8.13
2023-11-23T11:43:38.684Z,8.10
2023-11-23T11:44:38.686Z,8.12
2023-11-23T11:45:38.644Z,8.14
2023-11-23T11:46:38.689Z,8.14
2023-11-23T11:47:38.695Z,8.16
2023-11-23T11:48:38.680Z,8.16
2023-11-23T11:49:38.633Z,8.20
2023-11-23T11:50:38.595Z,8.17
2023-11-23T11:51:38.618Z,8.20
2023-11-23T11:52:38.631Z,8.19
2023-11-23T11:53:38.620Z,8.21
2023-11-23T11:54:38.713Z,8.17
2023-11-23T11:55:38.539Z,8.20
2023-11-23T11:56:38.594Z,8.17
2023-11-23T11:57:38.581Z,8.21
2023-11-23T11:58:38.509Z,8.19
2023-11-23T11:59:38.581Z,8.24
2023-11-23T12:00:38.504Z,8.21
2023-11-23T12:01:38.573Z,8.24
2023-11-23T12:02:38.596Z,8.23
2023-11-23T12:03:38.597Z,8.24
2023-11-23T12:04:38.538Z,8.26
2023-11-23T12:05:38.480Z,8.26
2023-11-23T12:06:38.507Z,8.26
2023-11-23T12:07:38.447Z,8.26
2023-11-23T12:08:38.443Z,8.29
2023-11-23T12:09:41.992Z,8.32
2023-11-23T12:10:38.426Z,8.28
2023-11-23T12:11:38.402Z,8.34
2023-11-23T12:12:38.391Z,8.31
2023-11-23T12:13:38.468Z,8.31
2023-11-23T12:14:38.344Z,8.31
2023-11-23T12:15:38.494Z,8.28
2023-11-23T12:16:38.438Z,8.32
2023-11-23T12:17:38.463Z,8.31
2023-11-23T12:18:38.434Z,8.31
2023-11-23T12:19:38.365Z,8.32
2023-11-23T12:20:38.289Z,8.34
2023-11-23T12:21:38.351Z,8.29
2023-11-23T12:22:38.277Z,8.34
2023-11-23T12:23:38.349Z,8.34
2023-11-23T12:24:38.385Z,8.32
2023-11-23T12:25:38.248Z,8.37
2023-11-23T12:26:38.247Z,8.35
2023-11-23T12:27:38.278Z,8.35
2023-11-23T12:28:38.212Z,8.38
2023-11-23T12:29:38.227Z,8.39
2023-11-23T12:30:38.282Z,8.41
2023-11-23T12:31:38.246Z,8.39
2023-11-23T12:32:38.196Z,8.42
2023-11-23T12:33:38.185Z,8.41
2023-11-23T12:34:38.168Z,8.44
2023-11-23T12:35:38.239Z,8.44
2023-11-23T12:36:38.248Z,8.49
2023-11-23T12:37:38.164Z,8.47
2023-11-23T12:38:38.161Z,8.49
2023-11-23T12:39:38.200Z,8.53
2023-11-23T12:40:38.154Z,8.55
2023-11-23T12:41:46.377Z,8.57
2023-11-23T12:42:38.178Z,8.60
2023-11-23T12:43:38.100Z,8.62
2023-11-23T12:44:38.044Z,8.60
2023-11-23T12:45:38.160Z,8.62
2023-11-23T12:46:38.160Z,8.67
2023-11-23T12:47:38.211Z,8.65
2023-11-23T12:48:38.089Z,8.68
2023-11-23T12:49:38.058Z,8.72
2023-11-23T12:50:38.007Z,8.78
2023-11-23T12:51:38.094Z,8.80
2023-11-23T12:52:38.026Z,8.81
2023-11-23T12:53:38.038Z,8.80
2023-11-23T12:54:38.032Z,8.83
2023-11-23T12:55:37.990Z,8.89
2023-11-23T12:56:37.933Z,8.92
2023-11-23T12:57:37.986Z,8.99
2023-11-23T12:58:39.010Z,8.96
2023-11-23T12:59:37.945Z,9.03
2023-11-23T13:00:38.019Z,9.06
2023-11-23T13:01:38.041Z,9.06
2023-11-23T13:02:37.904Z,9.15
2023-11-23T13:03:38.004Z,9.18
2023-11-23T13:04:37.933Z,9.16
2023-11-23T13:05:37.907Z,9.23
2023-11-23T13:06:38.033Z,9.27
2023-11-23T13:07:37.866Z,9.32
2023-11-23T13:08:37.885Z,9.36
2023-11-23T13:09:37.900Z,9.42
2023-11-23T13:10:37.805Z,9.44
2023-11-23T13:11:37.850Z,9.48
2023-11-23T13:12:38.017Z,9.50
2023-11-23T13:13:37.787Z,9.48
2023-11-23T13:14:37.785Z,9.50
2023-11-23T13:15:37.786Z,9.54
2023-11-23T13:16:37.766Z,9.59
2023-11-23T13:17:37.831Z,9.59
2023-11-23T13:18:53.533Z,9.63